WEATHER DATA

TODAY
Time Temp. Dewp. Hum. Bar. 1h Prec. 24h Prec.
00:01 5.2 1.9 79 1017.2 0.0000 0.0000
00:12 5.1 1.9 80 1017.1 0.0000 0.0000
00:22 4.9 1.7 80 1017.3 0.0000 0.0000
00:32 4.6 1.5 80 1017.6 0.0000 0.0000
00:42 4.5 1.4 80 1017.6 0.0000 0.0000
00:52 4.3 1.2 80 1017.6 0.0000 0.0000
01:02 4.1 1 80 1017.6 0.0000 0.0000
01:12 3.9 0.9 81 1017.6 0.0000 0.0000
01:23 3.8 0.8 81 1017.7 0.0000 0.0000
01:33 3.7 0.7 81 1017.7 0.0000 0.0000
01:42 3.6 0.8 82 1017.7 0.0000 0.0000
01:53 3.6 0.8 82 1018 0.0000 0.0000
02:03 3.6 1 83 1017.8 0.0000 0.0000
02:13 3.5 0.7 82 1017.9 0.0000 0.0000
02:23 3.4 0.6 82 1018 0.0000 0.0000
02:33 3.3 0.5 82 1018 0.0000 0.0000
02:43 3.2 0.4 82 1018.1 0.0000 0.0000
02:53 3.1 0.3 82 1018.2 0.0000 0.0000
03:04 2.9 0.1 82 1018.5 0.0000 0.0000
03:14 2.8 0 82 1018.6 0.0000 0.0000
03:23 2.7 -0.1 82 1018.7 0.0000 0.0000
03:33 2.6 0 83 1018.7 0.0000 0.0000
03:44 2.4 -0.2 83 1018.6 0.0000 0.0000
03:54 2.4 -0.2 83 1018.7 0.0000 0.0000
04:04 2.3 -0.3 83 1018.7 0.0000 0.0000
04:14 2.2 -0.3 83 1018.8 0.0000 0.0000
04:24 2.3 -0.3 83 1018.9 0.0000 0.0000
04:34 2.3 -0.1 84 1018.8 0.0000 0.0000
04:44 2.5 0.1 84 1018.7 0.0000 0.0000
04:55 2.7 0.4 85 1018.7 0.0000 0.0000
05:05 2.9 0.6 85 1018.7 0.0000 0.0000
05:14 3.2 0.8 84 1018.5 0.0000 0.0000
05:24 3.3 0.9 84 1018.6 0.0000 0.0000
05:35 3.5 0.9 83 1018.7 0.0000 0.0000
05:45 3.6 0.8 82 1018.7 0.0000 0.0000
05:55 3.6 0.8 82 1018.7 0.0000 0.0000
06:05 3.8 1 82 1018.8 0.0000 0.0000
06:15 3.9 1.1 82 1019.1 0.0000 0.0000
06:25 4.1 1.1 81 1019 0.0000 0.0000
06:35 4.4 1.4 81 1019.1 0.0000 0.0000
06:46 4.7 1.5 80 1019 0.0000 0.0000
06:55 4.9 1.6 79 1019 0.0000 0.0000
07:05 5.1 1.6 78 1018.9 0.0000 0.0000
07:16 5.4 1.9 78 1019.1 0.0000 0.0000
07:26 5.7 2 77 1018.9 0.0000 0.0000
07:36 5.8 1.9 76 1018.8 0.0000 0.0000
07:46 5.8 1.7 75 1018.9 0.0000 0.0000
07:56 5.8 1.7 75 1018.9 0.0000 0.0000
08:05 5.9 1.8 75 1019.1 0.0000 0.0000
08:16 6 1.9 75 1018.9 0.0000 0.0000
08:27 6.1 2.2 76 1018.8 0.0000 0.0000
08:37 6.3 2.4 76 1018.8 0.0000 0.0000
08:46 6.5 2.6 76 1018.9 0.0000 0.0000
08:56 6.7 2.6 75 1019 0.0000 0.0000
09:07 6.9 2.8 75 1018.9 0.0000 0.0000
09:17 7.1 2.6 73 1019 0.0000 0.0000
09:27 7.4 3.1 74 1018.8 0.0000 0.0000
09:36 7.6 3.3 74 1018.8 0.0000 0.0000
09:47 7.9 3.6 74 1018.9 0.0000 0.0000
10:07 8.4 3.8 73 1018.8 0.0000 0.0000
10:16 8.4 3.8 73 1018.7 0.0000 0.0000
10:25 8.4 3.8 73 1018.7 0.0000 0.0000
10:37 8.3 3.8 73 1018.8 0.0000 0.0000
10:47 8.3 3.8 73 1018.8 0.0000 0.0000
10:52 8.3 3.9 74 1018.8 0.0000 0.0000
11:13 8.3 3.8 73 1018.8 0.0000 0.0000
11:22 8.4 4 74 1018.7 0.0000 0.0000
11:34 8.4 4 74 1018.8 0.0000 0.0000
12:10 8.3 4.3 76 1018.6 0.0000 0.0000
12:20 8.2 4.4 77 1018.6 0.0000 0.0000
12:30 8.1 4.5 78 1018.5 0.0000 0.0000
12:40 8 4.4 78 1018.4 0.1010 0.1000
12:51 7.9 4.5 79 1018.5 0.2020 0.2000
13:01 7.9 4.5 79 1018.5 0.2020 0.2000
13:10 7.7 4.5 80 1018.7 0.2020 0.2000
13:21 7.6 4.6 81 1018.5 0.2020 0.2000
13:31 7.6 4.6 81 1018.5 0.2020 0.2000
13:41 7.6 4.7 82 1018.4 0.1010 0.2000
13:51 7.8 4.9 82 1018.4 0.0000 0.2000
14:01 7.9 4.8 81 1018.4 0.0000 0.2000
14:11 7.9 4.8 81 1018.3 0.0000 0.2000
14:21 8.1 5 81 1018.2 0.0000 0.2000
14:31 8.2 5.1 81 1018.2 0.0000 0.2000
14:42 8.3 5.1 80 1018.2 0.0000 0.2000
14:51 8.5 5.3 80 1018.2 0.0000 0.2000
15:01 8.7 5.4 80 1018.2 0.0000 0.2000
15:12 8.9 5.6 80 1018.1 0.0000 0.2000

DAY STATISTIC

2021-05-12
TEMPERATURE
AVERAGE
5.6
HIGH
8.9
15:12
LOW
2.2
04:14
PRESSURE
AVERAGE
1018.5
HIGH
1019.1
06:15
LOW
1017.1
00:12
DEWPOINT
AVERAGE
2.2
HIGH
5.6
15:12
LOW
-0.3
04:04
HUMIDITY
AVERAGE
79
HIGH
85
04:55
LOW
73
09:17
PRECIPITATION
RAIN HOUR
0.2
RAIN DAY
0.2
TEMPERATURE (°C)
LOW
2.2
HIGH
8.9
AVERAGE
5.6
PRESSURE (hpa)
LOW
1017.1
HIGH
1019.1
AVERAGE
1018.5
DEVICE